Time;durP1;ratioP1;P1;durP2;ratioP2;P2;SDS_P1;SDS_P2;PMS_P1;PMS_P2;Temp;Humidity;BMP_temperature;BMP_pressure;BME280_temperature;BME280_humidity;BME280_pressure;Samples;Min_cycle;Max_cycle;Signal;HPM_P1;HPM_P2
2024/02/01 00:01:59;;;;;;;4.10;2.83;;;;;;;;;;5074099;28;20261;-77
2024/02/01 00:04:25;;;;;;;3.95;2.88;;;;;;;;;;5076186;28;20028;-76
2024/02/01 00:06:51;;;;;;;3.92;2.65;;;;;;;;;;5076506;28;20028;-77
2024/02/01 00:09:18;;;;;;;3.70;2.50;;;;;;;;;;5079857;28;20489;-76
2024/02/01 00:11:44;;;;;;;3.45;2.45;;;;;;;;;;5070959;28;20483;-76
2024/02/01 00:14:11;;;;;;;5.20;3.17;;;;;;;;;;5083776;28;20036;-76
2024/02/01 00:16:37;;;;;;;5.18;3.53;;;;;;;;;;5075985;28;20044;-76
2024/02/01 00:19:03;;;;;;;5.13;3.30;;;;;;;;;;5076243;28;20059;-77
2024/02/01 00:21:29;;;;;;;3.78;2.75;;;;;;;;;;5081448;28;20025;-77
2024/02/01 00:23:55;;;;;;;3.67;2.67;;;;;;;;;;5087378;28;20025;-76
2024/02/01 00:26:21;;;;;;;4.13;2.85;;;;;;;;;;5075158;28;20039;-77
2024/02/01 00:28:47;;;;;;;3.70;2.40;;;;;;;;;;5075328;28;20116;-77
2024/02/01 00:31:13;;;;;;;4.45;2.78;;;;;;;;;;5075781;28;20027;-78
2024/02/01 00:33:40;;;;;;;5.63;3.67;;;;;;;;;;5075398;28;20032;-76
2024/02/01 00:36:06;;;;;;;3.88;2.92;;;;;;;;;;5076104;28;20052;-76
2024/02/01 00:38:32;;;;;;;4.10;3.10;;;;;;;;;;5077510;28;20103;-76
2024/02/01 00:40:58;;;;;;;7.05;3.40;;;;;;;;;;5075095;28;20132;-76
2024/02/01 00:43:24;;;;;;;5.28;3.55;;;;;;;;;;5076195;28;20485;-77
2024/02/01 00:45:50;;;;;;;5.80;3.88;;;;;;;;;;5058667;28;20136;-76
2024/02/01 00:48:16;;;;;;;4.18;3.10;;;;;;;;;;5075919;28;20020;-76
2024/02/01 00:50:42;;;;;;;4.63;3.38;;;;;;;;;;5085436;28;20032;-75
2024/02/01 00:53:08;;;;;;;5.75;3.50;;;;;;;;;;5093961;28;20028;-76
2024/02/01 00:55:34;;;;;;;5.47;3.30;;;;;;;;;;5080411;28;20063;-75
2024/02/01 00:58:00;;;;;;;5.28;3.67;;;;;;;;;;5074997;28;20031;-76
2024/02/01 01:00:27;;;;;;;5.65;3.95;;;;;;;;;;5074716;28;20020;-75
2024/02/01 01:02:53;;;;;;;7.97;4.18;;;;;;;;;;5066720;28;20559;-76
2024/02/01 01:05:19;;;;;;;6.20;4.88;;;;;;;;;;5073726;28;20025;-76
2024/02/01 01:07:45;;;;;;;5.95;3.95;;;;;;;;;;5066008;28;20043;-76
2024/02/01 01:10:11;;;;;;;5.25;3.95;;;;;;;;;;5073605;28;20020;-76
2024/02/01 01:12:37;;;;;;;6.25;4.40;;;;;;;;;;5074559;28;20032;-77
2024/02/01 01:15:03;;;;;;;6.38;4.43;;;;;;;;;;5068708;28;20107;-76
2024/02/01 01:17:29;;;;;;;10.07;4.25;;;;;;;;;;5074919;28;20171;-76
2024/02/01 01:20:02;;;;;;;6.72;4.45;;;;;;;;;;5074031;28;20475;-76
2024/02/01 01:22:28;;;;;;;7.38;4.63;;;;;;;;;;5080690;28;20016;-76
2024/02/01 01:24:54;;;;;;;6.18;4.07;;;;;;;;;;5077776;28;20170;-76
2024/02/01 01:27:20;;;;;;;7.18;4.15;;;;;;;;;;5082029;28;20052;-76
2024/02/01 01:29:46;;;;;;;5.28;3.75;;;;;;;;;;5074553;28;20028;-76
2024/02/01 01:32:12;;;;;;;6.38;4.00;;;;;;;;;;5083126;28;20321;-76
2024/02/01 01:34:38;;;;;;;5.38;4.22;;;;;;;;;;5082932;28;20361;-76
2024/02/01 01:37:04;;;;;;;5.72;3.75;;;;;;;;;;5080920;28;20032;-76
2024/02/01 01:39:30;;;;;;;5.15;4.05;;;;;;;;;;5079579;28;20020;-76
2024/02/01 01:41:56;;;;;;;5.68;4.38;;;;;;;;;;5074730;28;20025;-76
2024/02/01 01:44:22;;;;;;;6.68;4.90;;;;;;;;;;5072590;28;20063;-76
2024/02/01 01:46:49;;;;;;;6.72;5.03;;;;;;;;;;5074295;28;20035;-76
2024/02/01 01:49:17;;;;;;;8.35;5.95;;;;;;;;;;5082906;28;20015;-75
2024/02/01 01:51:44;;;;;;;11.55;7.22;;;;;;;;;;5089229;28;20052;-75
2024/02/01 01:54:11;;;;;;;13.27;8.55;;;;;;;;;;5073431;28;20025;-76
2024/02/01 01:56:37;;;;;;;12.02;7.63;;;;;;;;;;5072942;28;20031;-76
2024/02/01 01:59:05;;;;;;;12.27;7.53;;;;;;;;;;5064845;28;20554;-75
2024/02/01 02:01:32;;;;;;;10.50;7.20;;;;;;;;;;5073798;28;20471;-76
2024/02/01 02:03:58;;;;;;;10.77;6.60;;;;;;;;;;5073462;28;20107;-76
2024/02/01 02:06:25;;;;;;;15.65;8.65;;;;;;;;;;5073171;28;20028;-75
2024/02/01 02:08:51;;;;;;;13.32;7.97;;;;;;;;;;5073690;28;20033;-75
2024/02/01 02:11:17;;;;;;;10.23;7.20;;;;;;;;;;5078045;28;20098;-75
2024/02/01 02:13:46;;;;;;;10.98;8.50;;;;;;;;;;5073483;28;20487;-76
2024/02/01 02:16:12;;;;;;;15.07;9.13;;;;;;;;;;5070320;28;20028;-76
2024/02/01 02:18:38;;;;;;;12.85;8.77;;;;;;;;;;5074158;28;20120;-75
2024/02/01 02:21:05;;;;;;;12.15;8.13;;;;;;;;;;5065761;28;20036;-76
2024/02/01 02:23:31;;;;;;;12.65;8.48;;;;;;;;;;5083939;28;20004;-76
2024/02/01 02:25:57;;;;;;;12.65;7.90;;;;;;;;;;5089069;28;20039;-76
2024/02/01 02:28:23;;;;;;;11.82;7.50;;;;;;;;;;5090318;28;20029;-75
2024/02/01 02:30:49;;;;;;;9.93;6.53;;;;;;;;;;5091278;28;20070;-76
2024/02/01 02:33:15;;;;;;;9.45;6.85;;;;;;;;;;5090341;28;20028;-75
2024/02/01 02:35:41;;;;;;;11.20;7.45;;;;;;;;;;5088672;28;20052;-76
2024/02/01 02:38:07;;;;;;;9.98;7.75;;;;;;;;;;5088612;28;20084;-75
2024/02/01 02:40:33;;;;;;;8.50;6.85;;;;;;;;;;5087486;28;20029;-76
2024/02/01 02:43:00;;;;;;;12.05;7.60;;;;;;;;;;5088226;28;20044;-76
2024/02/01 02:45:26;;;;;;;11.70;8.10;;;;;;;;;;5070812;28;20528;-76
2024/02/01 02:47:52;;;;;;;12.70;8.95;;;;;;;;;;5064914;28;20108;-77
2024/02/01 02:50:19;;;;;;;12.05;8.23;;;;;;;;;;5073904;28;20099;-76
2024/02/01 02:52:47;;;;;;;14.52;8.48;;;;;;;;;;5073201;28;20427;-76
2024/02/01 02:55:13;;;;;;;13.30;7.68;;;;;;;;;;5065597;28;20031;-75
2024/02/01 02:57:39;;;;;;;11.80;7.60;;;;;;;;;;5073594;28;20375;-76
2024/02/01 03:00:05;;;;;;;17.65;9.63;;;;;;;;;;5072919;28;20080;-76
2024/02/01 03:02:31;;;;;;;14.63;9.93;;;;;;;;;;5073534;28;20090;-76
2024/02/01 03:04:58;;;;;;;13.93;8.50;;;;;;;;;;5072079;28;20040;-76
2024/02/01 03:07:24;;;;;;;14.02;8.10;;;;;;;;;;5073942;28;20021;-76
2024/02/01 03:09:50;;;;;;;11.13;7.75;;;;;;;;;;5074871;28;20033;-75
2024/02/01 03:12:16;;;;;;;14.93;7.18;;;;;;;;;;5076701;28;20020;-76
2024/02/01 03:14:42;;;;;;;10.80;6.70;;;;;;;;;;5076087;28;20056;-76
2024/02/01 03:17:09;;;;;;;7.13;5.57;;;;;;;;;;5071925;28;20130;-76
2024/02/01 03:19:35;;;;;;;11.35;6.20;;;;;;;;;;5056124;28;20024;-76
2024/02/01 03:22:02;;;;;;;15.65;7.18;;;;;;;;;;5063175;28;20020;-76
2024/02/01 03:24:32;;;;;;;10.32;6.13;;;;;;;;;;5065039;28;20040;-77
2024/02/01 03:26:58;;;;;;;10.95;5.90;;;;;;;;;;5072545;28;20040;-76
2024/02/01 03:29:24;;;;;;;11.32;6.07;;;;;;;;;;5067155;28;20033;-77
2024/02/01 03:31:51;;;;;;;11.23;6.53;;;;;;;;;;5068936;28;20474;-77
2024/02/01 03:34:20;;;;;;;8.57;5.80;;;;;;;;;;5072575;28;20028;-76
2024/02/01 03:36:49;;;;;;;8.23;5.43;;;;;;;;;;5072567;28;20012;-76
2024/02/01 03:39:22;;;;;;;9.80;5.30;;;;;;;;;;5072641;28;20013;-75
2024/02/01 03:41:49;;;;;;;6.75;4.63;;;;;;;;;;5072527;28;20063;-76
2024/02/01 03:44:15;;;;;;;7.70;4.70;;;;;;;;;;5060068;28;20036;-76
2024/02/01 03:46:42;;;;;;;10.80;5.20;;;;;;;;;;5085337;28;20037;-76
2024/02/01 03:49:08;;;;;;;9.23;4.45;;;;;;;;;;5088183;28;20048;-76
2024/02/01 03:51:36;;;;;;;8.77;4.88;;;;;;;;;;5072892;28;20111;-76
2024/02/01 03:54:08;;;;;;;8.45;5.13;;;;;;;;;;5063381;28;20028;-75
2024/02/01 03:56:41;;;;;;;7.78;4.55;;;;;;;;;;5071893;28;20025;-75
2024/02/01 03:59:08;;;;;;;;;;;;;;;;;;5077493;28;20060;-76
2024/02/01 04:01:35;;;;;;;6.25;3.97;;;;;;;;;;5076226;28;20287;-75
2024/02/01 04:04:05;;;;;;;5.88;3.85;;;;;;;;;;5065405;28;20021;-76
2024/02/01 04:06:35;;;;;;;9.98;4.55;;;;;;;;;;5073360;28;20074;-75
2024/02/01 04:09:01;;;;;;;7.13;4.03;;;;;;;;;;5075437;28;20436;-75
2024/02/01 04:11:30;;;;;;;5.85;3.95;;;;;;;;;;5076257;28;20028;-75
2024/02/01 04:13:56;;;;;;;5.68;3.53;;;;;;;;;;5076954;28;20021;-77
2024/02/01 04:16:22;;;;;;;5.68;3.88;;;;;;;;;;5075596;28;20033;-76
2024/02/01 04:18:48;;;;;;;8.13;3.95;;;;;;;;;;5075486;28;20024;-76
2024/02/01 04:21:14;;;;;;;5.13;3.45;;;;;;;;;;5071105;28;20099;-76
2024/02/01 04:23:40;;;;;;;5.22;3.53;;;;;;;;;;5074869;28;20024;-76
2024/02/01 04:26:07;;;;;;;7.82;3.83;;;;;;;;;;5082538;28;20017;-76
2024/02/01 04:28:33;;;;;;;6.65;3.63;;;;;;;;;;5075571;28;20052;-76
2024/02/01 04:31:01;;;;;;;6.90;3.05;;;;;;;;;;5075606;28;20021;-76
2024/02/01 04:33:28;;;;;;;6.13;3.35;;;;;;;;;;5075019;28;20024;-76
2024/02/01 04:35:54;;;;;;;5.30;3.05;;;;;;;;;;5066799;28;20064;-76
2024/02/01 04:38:20;;;;;;;6.00;3.08;;;;;;;;;;5074564;28;20052;-76
2024/02/01 04:40:46;;;;;;;5.80;3.13;;;;;;;;;;5075426;28;20028;-76
2024/02/01 04:43:14;;;;;;;5.60;3.47;;;;;;;;;;5088827;28;20035;-76
2024/02/01 04:45:40;;;;;;;8.60;4.15;;;;;;;;;;5095381;28;20418;-76
2024/02/01 04:48:10;;;;;;;6.25;3.70;;;;;;;;;;5075716;28;20526;-76
2024/02/01 04:50:39;;;;;;;6.15;3.15;;;;;;;;;;5063566;28;20063;-76
2024/02/01 04:53:08;;;;;;;6.15;3.28;;;;;;;;;;5075524;28;20100;-75
2024/02/01 04:55:34;;;;;;;9.90;3.83;;;;;;;;;;5081067;28;20538;-76
2024/02/01 04:58:00;;;;;;;5.95;3.92;;;;;;;;;;5069253;28;20483;-76
2024/02/01 05:00:27;;;;;;;4.97;3.17;;;;;;;;;;5071659;28;20012;-76
2024/02/01 05:02:54;;;;;;;6.05;3.55;;;;;;;;;;5079367;28;20016;-76
2024/02/01 05:05:20;;;;;;;7.72;3.83;;;;;;;;;;5076099;28;20031;-76
2024/02/01 05:07:46;;;;;;;6.90;3.63;;;;;;;;;;5079241;28;20078;-76
2024/02/01 05:10:13;;;;;;;4.45;3.00;;;;;;;;;;5068966;28;20028;-76
2024/02/01 05:12:42;;;;;;;4.43;2.88;;;;;;;;;;5093602;28;20517;-76
2024/02/01 05:15:09;;;;;;;5.00;2.88;;;;;;;;;;5076594;28;20103;-76
2024/02/01 05:17:35;;;;;;;5.55;3.58;;;;;;;;;;5071578;28;20020;-76
2024/02/01 05:20:08;;;;;;;4.35;2.60;;;;;;;;;;5074477;28;20033;-76
2024/02/01 05:22:35;;;;;;;6.95;3.58;;;;;;;;;;5075858;28;20032;-76
2024/02/01 05:25:01;;;;;;;4.80;2.92;;;;;;;;;;5066552;28;20390;-76
2024/02/01 05:27:27;;;;;;;6.47;3.38;;;;;;;;;;5075339;28;20024;-76
2024/02/01 05:29:53;;;;;;;10.65;3.33;;;;;;;;;;5067194;28;20092;-76
2024/02/01 05:32:19;;;;;;;8.07;3.95;;;;;;;;;;5079480;28;20471;-76
2024/02/01 05:34:48;;;;;;;6.45;4.00;;;;;;;;;;5095421;28;20058;-76
2024/02/01 05:37:14;;;;;;;5.93;3.53;;;;;;;;;;5081290;28;20021;-76
2024/02/01 05:39:44;;;;;;;6.68;3.42;;;;;;;;;;5070766;28;20047;-76
2024/02/01 05:42:13;;;;;;;6.07;2.97;;;;;;;;;;5079889;28;20108;-77
2024/02/01 05:44:40;;;;;;;5.60;2.95;;;;;;;;;;5080174;28;20037;-76
2024/02/01 05:47:06;;;;;;;6.93;3.28;;;;;;;;;;5088392;28;20077;-76
2024/02/01 05:49:33;;;;;;;7.68;3.80;;;;;;;;;;5094123;28;20039;-76
2024/02/01 05:52:03;;;;;;;5.78;3.40;;;;;;;;;;5078256;28;20040;-75
2024/02/01 05:54:29;;;;;;;7.47;3.05;;;;;;;;;;5076825;28;20026;-76
2024/02/01 05:56:55;;;;;;;3.83;2.78;;;;;;;;;;5071578;28;20020;-76
2024/02/01 05:59:21;;;;;;;3.45;3.10;;;;;;;;;;5061783;28;20028;-76
2024/02/01 06:01:47;;;;;;;5.47;2.95;;;;;;;;;;5078252;28;20530;-76
2024/02/01 06:04:14;;;;;;;10.63;4.70;;;;;;;;;;5074972;28;20051;-77
2024/02/01 06:06:47;;;;;;;7.25;3.40;;;;;;;;;;5076265;28;20025;-77
2024/02/01 06:09:14;;;;;;;7.35;4.07;;;;;;;;;;5075383;28;20027;-76
2024/02/01 06:11:44;;;;;;;8.02;3.42;;;;;;;;;;5077320;28;20055;-76
2024/02/01 06:14:11;;;;;;;6.63;3.63;;;;;;;;;;5078657;28;20036;-76
2024/02/01 06:16:37;;;;;;;5.75;3.15;;;;;;;;;;5080630;28;20081;-76
2024/02/01 06:19:03;;;;;;;3.60;2.42;;;;;;;;;;5075280;28;20032;-75
2024/02/01 06:21:31;;;;;;;3.55;2.60;;;;;;;;;;5075036;28;20489;-75
2024/02/01 06:23:57;;;;;;;4.43;2.53;;;;;;;;;;5073489;28;20021;-75
2024/02/01 06:26:27;;;;;;;10.13;4.30;;;;;;;;;;5081493;28;20020;-76
2024/02/01 06:28:56;;;;;;;8.80;4.53;;;;;;;;;;5076966;28;20056;-76
2024/02/01 06:31:23;;;;;;;9.48;4.25;;;;;;;;;;5074580;28;20031;-77
2024/02/01 06:33:50;;;;;;;4.72;3.60;;;;;;;;;;5081554;28;20024;-77
2024/02/01 06:36:19;;;;;;;5.53;3.53;;;;;;;;;;5097600;28;20046;-75
2024/02/01 06:44:24;;;;;;;7.85;3.97;;;;;;;;;;5075485;28;20094;-77
2024/02/01 06:49:49;;;;;;;4.78;3.03;;;;;;;;;;5072186;28;20036;-77
2024/02/01 06:57:47;;;;;;;4.22;3.30;;;;;;;;;;5071587;28;20083;-77
2024/02/01 07:03:02;;;;;;;5.93;3.92;;;;;;;;;;5076030;28;20021;-77
2024/02/01 07:08:13;;;;;;;10.43;4.03;;;;;;;;;;5058321;28;20043;-77
2024/02/01 07:10:43;;;;;;;10.43;4.22;;;;;;;;;;5066276;28;20029;-76
2024/02/01 07:13:45;;;;;;;7.63;4.68;;;;;;;;;;5075227;28;20455;-77
2024/02/01 07:16:35;;;;;;;6.55;3.30;;;;;;;;;;5073704;28;20132;-76
2024/02/01 07:19:23;;;;;;;8.48;3.70;;;;;;;;;;5077670;28;20088;-75
2024/02/01 07:57:43;;;;;;;13.40;4.30;;;;;;;;;;5072157;28;20044;-77
2024/02/01 08:00:17;;;;;;;8.20;4.68;;;;;;;;;;5075613;28;20017;-77
2024/02/01 08:03:00;;;;;;;7.35;4.78;;;;;;;;;;5076443;28;20037;-76
2024/02/01 08:08:12;;;;;;;10.88;4.72;;;;;;;;;;5070581;28;20047;-77
2024/02/01 08:10:38;;;;;;;12.43;6.32;;;;;;;;;;5072142;28;20064;-78
2024/02/01 08:13:12;;;;;;;8.55;4.97;;;;;;;;;;5079631;28;20094;-77
2024/02/01 08:15:40;;;;;;;9.77;5.60;;;;;;;;;;5079070;28;20031;-77
2024/02/01 08:21:19;;;;;;;9.10;5.65;;;;;;;;;;5088012;28;20047;-79
2024/02/01 08:23:45;;;;;;;10.40;5.80;;;;;;;;;;5088757;28;20432;-79
2024/02/01 08:26:12;;;;;;;10.48;6.18;;;;;;;;;;5089992;28;20138;-78
2024/02/01 08:28:38;;;;;;;11.18;5.78;;;;;;;;;;5089364;28;20036;-81
2024/02/01 08:31:08;;;;;;;11.63;6.40;;;;;;;;;;5086300;28;20027;-78
2024/02/01 08:33:35;;;;;;;8.90;5.85;;;;;;;;;;5087585;28;20028;-81
2024/02/01 08:36:03;;;;;;;8.63;5.45;;;;;;;;;;5089355;28;20024;-79
2024/02/01 08:38:32;;;;;;;11.52;5.32;;;;;;;;;;5089173;28;20080;-80
2024/02/01 08:40:58;;;;;;;8.65;5.68;;;;;;;;;;5085996;28;20035;-79
2024/02/01 08:43:24;;;;;;;8.70;5.72;;;;;;;;;;5089766;28;20020;-82
2024/02/01 08:45:50;;;;;;;7.97;5.75;;;;;;;;;;5083443;28;20073;-76
2024/02/01 08:48:16;;;;;;;11.48;6.03;;;;;;;;;;5074198;28;20100;-77
2024/02/01 08:50:44;;;;;;;12.05;6.88;;;;;;;;;;5084560;28;20029;-76
2024/02/01 08:53:11;;;;;;;10.32;6.93;;;;;;;;;;5078636;28;20039;-76
2024/02/01 08:55:38;;;;;;;8.60;6.43;;;;;;;;;;5078633;28;20024;-76
2024/02/01 08:58:08;;;;;;;11.15;7.30;;;;;;;;;;5078099;28;20379;-76
2024/02/01 09:00:35;;;;;;;11.13;6.95;;;;;;;;;;5076855;28;20032;-77
2024/02/01 09:03:15;;;;;;;9.05;6.97;;;;;;;;;;5077759;28;20379;-77
2024/02/01 09:05:42;;;;;;;9.02;5.30;;;;;;;;;;5078354;28;20028;-77
2024/02/01 09:08:16;;;;;;;11.75;6.60;;;;;;;;;;5077858;28;20024;-77
2024/02/01 09:11:00;;;;;;;11.15;6.55;;;;;;;;;;5078257;28;20027;-76
2024/02/01 09:13:30;;;;;;;9.63;6.00;;;;;;;;;;5071244;28;20056;-76
2024/02/01 09:15:56;;;;;;;9.00;5.47;;;;;;;;;;5081510;28;20094;-75
2024/02/01 09:18:22;;;;;;;7.90;5.22;;;;;;;;;;5084482;28;20024;-75
2024/02/01 09:20:49;;;;;;;13.15;7.30;;;;;;;;;;5083400;28;20052;-75
2024/02/01 09:23:15;;;;;;;9.57;6.68;;;;;;;;;;5084220;28;20019;-75
2024/02/01 09:25:41;;;;;;;9.00;5.90;;;;;;;;;;5084549;28;20033;-74
2024/02/01 09:28:12;;;;;;;12.15;7.15;;;;;;;;;;5085303;28;20076;-75
2024/02/01 09:30:45;;;;;;;9.18;6.72;;;;;;;;;;5085508;28;20031;-76
2024/02/01 09:33:11;;;;;;;7.63;5.65;;;;;;;;;;5090268;28;20028;-76
2024/02/01 09:35:37;;;;;;;10.23;6.13;;;;;;;;;;5100087;28;20031;-75
2024/02/01 09:38:03;;;;;;;9.23;5.97;;;;;;;;;;5094250;28;20050;-77
2024/02/01 09:43:39;;;;;;;5.63;4.72;;;;;;;;;;5096288;28;20070;-76
2024/02/01 09:46:08;;;;;;;10.85;6.90;;;;;;;;;;5087851;28;20028;-75
2024/02/01 09:48:38;;;;;;;10.90;7.07;;;;;;;;;;5092729;28;20047;-76
2024/02/01 09:51:04;;;;;;;9.88;6.35;;;;;;;;;;5099768;28;20027;-77
2024/02/01 09:53:30;;;;;;;10.82;6.05;;;;;;;;;;5091841;28;20054;-78
2024/02/01 09:56:00;;;;;;;8.75;5.38;;;;;;;;;;5089386;28;20028;-76
2024/02/01 09:58:27;;;;;;;13.43;6.35;;;;;;;;;;5085551;28;20028;-76
2024/02/01 10:00:53;;;;;;;10.23;6.45;;;;;;;;;;5082925;28;20017;-78
2024/02/01 10:03:23;;;;;;;9.88;6.18;;;;;;;;;;5069875;28;20391;-77
2024/02/01 10:05:49;;;;;;;10.55;6.03;;;;;;;;;;5081825;28;20114;-77
2024/02/01 10:08:16;;;;;;;9.43;5.70;;;;;;;;;;5081871;28;20025;-77
2024/02/01 10:10:44;;;;;;;9.82;5.75;;;;;;;;;;5073816;28;20054;-77
2024/02/01 10:13:13;;;;;;;12.20;6.40;;;;;;;;;;5073755;28;20059;-76
2024/02/01 10:15:50;;;;;;;12.27;6.93;;;;;;;;;;5075786;28;20039;-77
2024/02/01 10:18:20;;;;;;;10.98;6.13;;;;;;;;;;5075681;28;20066;-76
2024/02/01 10:20:49;;;;;;;10.48;6.68;;;;;;;;;;5083531;28;20055;-78
2024/02/01 10:23:15;;;;;;;13.95;6.93;;;;;;;;;;5075618;28;20127;-77
2024/02/01 10:25:44;;;;;;;9.77;6.80;;;;;;;;;;5080015;28;20195;-77
2024/02/01 10:28:11;;;;;;;10.85;7.22;;;;;;;;;;5077442;28;20025;-77
2024/02/01 10:30:45;;;;;;;8.77;6.45;;;;;;;;;;5076393;28;20025;-77
2024/02/01 10:33:12;;;;;;;9.35;6.22;;;;;;;;;;5061094;28;20079;-76
2024/02/01 10:35:38;;;;;;;12.43;5.93;;;;;;;;;;5075776;28;20028;-77
2024/02/01 10:38:14;;;;;;;10.55;6.30;;;;;;;;;;5067398;28;20024;-77
2024/02/01 10:40:58;;;;;;;10.25;5.88;;;;;;;;;;5069679;28;20020;-76
2024/02/01 10:43:28;;;;;;;6.75;5.30;;;;;;;;;;5074922;28;20429;-77
2024/02/01 10:46:06;;;;;;;9.35;5.80;;;;;;;;;;5069949;28;20086;-77
2024/02/01 10:48:40;;;;;;;12.75;7.03;;;;;;;;;;5070733;28;20570;-77
2024/02/01 10:51:10;;;;;;;15.75;7.40;;;;;;;;;;5088350;28;20025;-77
2024/02/01 10:53:44;;;;;;;9.45;6.10;;;;;;;;;;5089075;28;20027;-77
2024/02/01 10:56:14;;;;;;;12.57;6.90;;;;;;;;;;5063556;28;20094;-77
2024/02/01 10:58:51;;;;;;;13.70;7.05;;;;;;;;;;5088310;28;20047;-77
2024/02/01 11:01:18;;;;;;;9.98;6.57;;;;;;;;;;5086808;28;20024;-77
2024/02/01 11:04:05;;;;;;;11.20;6.82;;;;;;;;;;5081419;28;20021;-76
2024/02/01 11:06:31;;;;;;;8.60;5.75;;;;;;;;;;5076027;28;20055;-76
2024/02/01 11:09:02;;;;;;;9.38;6.53;;;;;;;;;;5070363;28;20112;-76
2024/02/01 11:11:32;;;;;;;10.65;6.20;;;;;;;;;;5075158;28;20025;-76
2024/02/01 11:14:09;;;;;;;9.75;6.13;;;;;;;;;;5072162;28;20106;-77
2024/02/01 11:16:56;;;;;;;6.45;4.93;;;;;;;;;;5080071;28;20028;-77
2024/02/01 11:19:33;;;;;;;9.50;5.25;;;;;;;;;;5079891;28;20069;-77
2024/02/01 11:22:03;;;;;;;9.88;6.45;;;;;;;;;;5080550;28;20025;-77
2024/02/01 11:24:33;;;;;;;11.65;6.00;;;;;;;;;;5078762;28;20364;-78
2024/02/01 11:27:07;;;;;;;10.48;5.80;;;;;;;;;;5065268;28;20360;-76
2024/02/01 11:29:34;;;;;;;9.30;5.50;;;;;;;;;;5064095;28;20032;-76
2024/02/01 11:32:03;;;;;;;12.38;6.38;;;;;;;;;;5080341;28;20036;-77
2024/02/01 11:34:31;;;;;;;8.65;5.13;;;;;;;;;;5082969;28;20063;-76
2024/02/01 11:36:58;;;;;;;10.90;5.80;;;;;;;;;;5079710;28;20020;-77
2024/02/01 11:39:26;;;;;;;11.40;6.38;;;;;;;;;;5077493;28;20524;-77
2024/02/01 11:41:53;;;;;;;11.38;6.18;;;;;;;;;;5079465;28;20025;-76
2024/02/01 11:44:20;;;;;;;11.60;5.93;;;;;;;;;;5079848;28;21316;-77
2024/02/01 11:46:47;;;;;;;8.50;5.32;;;;;;;;;;5082776;28;20356;-76
2024/02/01 11:49:18;;;;;;;10.63;5.93;;;;;;;;;;5080999;28;20032;-77
2024/02/01 11:51:51;;;;;;;9.93;4.73;;;;;;;;;;5092269;28;20604;-76
2024/02/01 11:54:17;;;;;;;9.43;5.05;;;;;;;;;;5067749;28;20132;-79
2024/02/01 11:56:44;;;;;;;10.43;6.13;;;;;;;;;;5065754;28;20021;-75
2024/02/01 11:59:13;;;;;;;9.00;5.03;;;;;;;;;;5085306;28;20390;-78
2024/02/01 12:01:39;;;;;;;13.30;5.97;;;;;;;;;;5074681;28;20021;-77
2024/02/01 12:04:08;;;;;;;14.18;5.30;;;;;;;;;;5075252;28;20459;-77
2024/02/01 12:06:35;;;;;;;12.45;5.68;;;;;;;;;;5078777;28;20021;-77
2024/02/01 12:09:02;;;;;;;10.55;5.15;;;;;;;;;;5080146;28;20181;-76
2024/02/01 12:11:34;;;;;;;6.50;4.95;;;;;;;;;;5078523;28;20033;-77
2024/02/01 12:14:02;;;;;;;8.27;5.35;;;;;;;;;;5090592;28;20016;-77
2024/02/01 12:16:32;;;;;;;15.05;5.80;;;;;;;;;;5071066;28;20089;-76
2024/02/01 12:18:59;;;;;;;9.20;5.32;;;;;;;;;;5074509;28;20063;-77
2024/02/01 12:21:29;;;;;;;8.13;5.03;;;;;;;;;;5080283;28;20081;-77
2024/02/01 12:23:58;;;;;;;7.63;4.03;;;;;;;;;;5081076;28;20101;-77
2024/02/01 12:26:27;;;;;;;8.00;5.07;;;;;;;;;;5074254;28;20017;-78
2024/02/01 12:28:54;;;;;;;6.32;4.03;;;;;;;;;;5077883;28;20017;-77
2024/02/01 12:31:20;;;;;;;8.18;4.90;;;;;;;;;;5072645;28;20468;-77
2024/02/01 12:33:47;;;;;;;8.75;4.68;;;;;;;;;;5081975;28;20029;-77
2024/02/01 12:36:13;;;;;;;6.45;4.40;;;;;;;;;;5076796;28;20036;-77
2024/02/01 12:38:44;;;;;;;7.57;4.43;;;;;;;;;;5079961;28;20443;-76
2024/02/01 12:41:16;;;;;;;5.38;3.92;;;;;;;;;;5069641;28;20525;-77
2024/02/01 12:43:44;;;;;;;7.32;4.55;;;;;;;;;;5082027;28;20020;-77
2024/02/01 12:46:11;;;;;;;7.63;4.63;;;;;;;;;;5083855;28;20035;-78
2024/02/01 12:48:40;;;;;;;5.38;4.05;;;;;;;;;;5080368;28;20025;-79
2024/02/01 12:51:07;;;;;;;5.57;3.25;;;;;;;;;;5077534;28;20115;-77
2024/02/01 12:53:34;;;;;;;5.50;3.70;;;;;;;;;;5073451;28;20086;-78
2024/02/01 12:56:00;;;;;;;6.65;4.20;;;;;;;;;;5077842;28;20028;-77
2024/02/01 12:58:27;;;;;;;8.52;5.18;;;;;;;;;;5077594;28;20371;-77
2024/02/01 13:00:53;;;;;;;8.30;5.07;;;;;;;;;;5083459;28;20435;-77
2024/02/01 13:03:19;;;;;;;7.60;4.43;;;;;;;;;;5081024;28;20065;-77
2024/02/01 13:05:46;;;;;;;11.00;4.72;;;;;;;;;;5081201;28;20020;-77
2024/02/01 13:08:15;;;;;;;8.07;3.80;;;;;;;;;;5081835;28;20142;-76
2024/02/01 13:10:44;;;;;;;8.00;4.57;;;;;;;;;;5082283;28;20080;-78
2024/02/01 13:13:10;;;;;;;6.35;4.90;;;;;;;;;;5084591;28;20017;-76
2024/02/01 13:15:37;;;;;;;7.50;4.82;;;;;;;;;;5078859;28;20033;-77
2024/02/01 13:18:03;;;;;;;11.13;5.30;;;;;;;;;;5078579;28;20402;-78
2024/02/01 13:20:30;;;;;;;6.60;4.75;;;;;;;;;;5068750;28;20024;-77
2024/02/01 13:22:57;;;;;;;7.75;5.03;;;;;;;;;;5077401;28;20021;-77
2024/02/01 13:25:23;;;;;;;7.70;4.63;;;;;;;;;;5073734;28;20476;-79
2024/02/01 13:27:51;;;;;;;6.10;4.78;;;;;;;;;;5077922;28;20391;-77
2024/02/01 13:30:18;;;;;;;8.98;4.82;;;;;;;;;;5077490;28;20028;-76
2024/02/01 13:32:44;;;;;;;9.60;4.35;;;;;;;;;;5076809;28;20560;-78
2024/02/01 13:35:11;;;;;;;8.52;4.55;;;;;;;;;;5083833;28;20056;-76
2024/02/01 13:37:37;;;;;;;6.00;4.60;;;;;;;;;;5079556;28;20020;-78
2024/02/01 13:40:14;;;;;;;5.95;3.92;;;;;;;;;;5081040;28;20066;-78
2024/02/01 13:42:41;;;;;;;5.75;4.20;;;;;;;;;;5082243;28;20043;-77
2024/02/01 13:45:07;;;;;;;7.20;4.25;;;;;;;;;;5079673;28;20105;-78
2024/02/01 13:47:34;;;;;;;7.38;4.28;;;;;;;;;;5079957;28;20438;-78
2024/02/01 13:50:00;;;;;;;8.98;4.40;;;;;;;;;;5081069;28;20131;-78
2024/02/01 13:52:26;;;;;;;6.50;4.38;;;;;;;;;;5080595;28;20024;-77
2024/02/01 13:54:53;;;;;;;8.70;4.10;;;;;;;;;;5077689;28;20028;-77
2024/02/01 13:57:19;;;;;;;5.32;4.38;;;;;;;;;;5079424;28;20020;-77
2024/02/01 13:59:45;;;;;;;5.32;3.65;;;;;;;;;;5079314;28;20031;-78
2024/02/01 14:02:13;;;;;;;6.43;4.55;;;;;;;;;;5078870;28;20044;-78
2024/02/01 14:04:39;;;;;;;6.30;4.47;;;;;;;;;;5081017;28;20099;-80
2024/02/01 14:07:06;;;;;;;8.40;5.35;;;;;;;;;;5079262;28;20028;-78
2024/02/01 14:09:32;;;;;;;7.22;4.82;;;;;;;;;;5077363;28;20032;-79
2024/02/01 14:12:01;;;;;;;5.35;4.22;;;;;;;;;;5074396;28;20097;-78
2024/02/01 14:14:29;;;;;;;6.80;5.50;;;;;;;;;;5090564;28;20049;-77
2024/02/01 14:16:55;;;;;;;7.07;5.20;;;;;;;;;;5083219;28;20016;-77
2024/02/01 14:19:23;;;;;;;11.85;6.63;;;;;;;;;;5080979;28;20020;-78
2024/02/01 14:21:49;;;;;;;52.22;19.95;;;;;;;;;;5078326;28;20035;-77
2024/02/01 14:24:15;;;;;;;45.28;17.08;;;;;;;;;;5078390;28;20029;-77
2024/02/01 14:26:42;;;;;;;33.15;13.40;;;;;;;;;;5072442;28;20032;-78
2024/02/01 14:29:08;;;;;;;24.95;11.25;;;;;;;;;;5072560;28;20021;-79
2024/02/01 14:31:34;;;;;;;17.55;8.48;;;;;;;;;;5083967;28;20055;-77
2024/02/01 14:34:01;;;;;;;10.68;6.28;;;;;;;;;;5079132;28;20016;-78
2024/02/01 14:36:28;;;;;;;10.63;6.15;;;;;;;;;;5074721;28;20077;-78
2024/02/01 14:38:54;;;;;;;14.65;12.93;;;;;;;;;;5073754;28;20484;-78
2024/02/01 14:41:21;;;;;;;12.90;7.97;;;;;;;;;;5071514;28;20043;-78
2024/02/01 14:43:47;;;;;;;9.02;5.95;;;;;;;;;;5075311;28;20040;-78
2024/02/01 14:46:13;;;;;;;7.20;5.03;;;;;;;;;;5074512;28;20375;-78
2024/02/01 14:48:39;;;;;;;18.40;10.48;;;;;;;;;;5079319;28;20056;-77
2024/02/01 14:51:05;;;;;;;23.50;12.90;;;;;;;;;;5074767;28;20061;-77
2024/02/01 14:53:31;;;;;;;24.08;14.98;;;;;;;;;;5078388;28;20029;-77
2024/02/01 14:55:57;;;;;;;17.05;10.48;;;;;;;;;;5075715;28;20037;-78
2024/02/01 14:58:24;;;;;;;13.77;8.57;;;;;;;;;;5066564;28;20090;-78
2024/02/01 15:00:50;;;;;;;19.55;12.25;;;;;;;;;;5072200;28;20025;-78
2024/02/01 15:03:17;;;;;;;17.83;10.93;;;;;;;;;;5081017;28;20512;-77
2024/02/01 15:05:44;;;;;;;18.77;12.82;;;;;;;;;;5081860;28;20023;-77
2024/02/01 15:08:10;;;;;;;13.88;10.07;;;;;;;;;;5079643;28;20028;-78
2024/02/01 15:10:36;;;;;;;10.35;8.50;;;;;;;;;;5082544;28;20028;-77
2024/02/01 15:13:02;;;;;;;8.02;6.15;;;;;;;;;;5088014;28;20036;-77
2024/02/01 15:15:33;;;;;;;6.20;5.43;;;;;;;;;;5072325;28;20025;-77
2024/02/01 15:17:59;;;;;;;7.75;5.53;;;;;;;;;;5073989;28;20017;-77
2024/02/01 15:20:35;;;;;;;5.35;4.28;;;;;;;;;;5078303;28;20041;-76
2024/02/01 15:23:02;;;;;;;6.35;3.92;;;;;;;;;;5077542;28;20020;-76
2024/02/01 15:25:28;;;;;;;4.63;3.33;;;;;;;;;;5092362;28;20059;-77
2024/02/01 15:27:55;;;;;;;5.18;3.63;;;;;;;;;;5092907;28;20040;-77
2024/02/01 15:30:21;;;;;;;3.47;2.90;;;;;;;;;;5092016;28;20503;-77
2024/02/01 15:32:47;;;;;;;3.28;2.63;;;;;;;;;;5095041;28;20020;-78
2024/02/01 15:35:14;;;;;;;4.05;2.80;;;;;;;;;;5092877;28;20051;-77
2024/02/01 15:37:40;;;;;;;3.75;2.67;;;;;;;;;;5083699;28;20058;-79
2024/02/01 15:40:07;;;;;;;3.80;2.70;;;;;;;;;;5079446;28;20055;-77
2024/02/01 15:42:33;;;;;;;3.55;2.97;;;;;;;;;;5077069;28;20123;-78
2024/02/01 15:44:59;;;;;;;4.55;2.72;;;;;;;;;;5074692;28;20036;-79
2024/02/01 15:47:26;;;;;;;3.35;3.05;;;;;;;;;;5083599;28;20043;-78